createdAt,value
2019-02-17T05:00:39.191Z,-2.81
2019-02-17T05:01:31.055Z,-2.86
2019-02-17T05:02:30.222Z,-2.78
2019-02-17T05:03:30.453Z,-2.73
2019-02-17T05:04:30.643Z,-2.74
2019-02-17T05:05:30.804Z,-2.79
2019-02-17T05:06:30.984Z,-2.67
2019-02-17T05:07:31.152Z,-2.73
2019-02-17T05:08:31.333Z,-2.77
2019-02-17T05:09:31.505Z,-2.77
2019-02-17T05:10:32.808Z,-2.78
2019-02-17T05:11:31.815Z,-2.70
2019-02-17T05:12:31.975Z,-2.70
2019-02-17T05:13:32.146Z,-2.78
2019-02-17T05:14:32.318Z,-2.74
2019-02-17T05:15:32.470Z,-2.70
2019-02-17T05:16:32.645Z,-2.71
2019-02-17T05:17:32.787Z,-2.81
2019-02-17T05:18:32.950Z,-2.89
2019-02-17T05:19:33.145Z,-2.84
2019-02-17T05:20:33.311Z,-2.81
2019-02-17T05:21:33.484Z,-2.86
2019-02-17T05:22:33.693Z,-2.84
2019-02-17T05:23:33.857Z,-2.77
2019-02-17T05:24:34.043Z,-2.86
2019-02-17T05:25:34.234Z,-2.81
2019-02-17T05:26:34.396Z,-2.84
2019-02-17T05:27:34.610Z,-2.92
2019-02-17T05:28:34.809Z,-2.77
2019-02-17T05:29:35.038Z,-2.81
2019-02-17T05:30:35.234Z,-2.89
2019-02-17T05:31:35.424Z,-2.70
2019-02-17T05:32:35.600Z,-2.88
2019-02-17T05:33:35.785Z,-2.84
2019-02-17T05:34:36.003Z,-2.78
2019-02-17T05:35:36.179Z,-2.86
2019-02-17T05:36:36.384Z,-2.88
2019-02-17T05:37:36.608Z,-2.82
2019-02-17T05:38:36.823Z,-2.85
2019-02-17T05:39:37.019Z,-2.88
2019-02-17T05:40:38.220Z,-2.81
2019-02-17T05:41:37.375Z,-2.81
2019-02-17T05:42:37.547Z,-2.85
2019-02-17T05:43:37.768Z,-2.89
2019-02-17T05:44:37.978Z,-2.81
2019-02-17T05:45:38.180Z,-2.84
2019-02-17T05:46:38.390Z,-2.91
2019-02-17T05:47:38.571Z,-2.88
2019-02-17T05:48:38.744Z,-3.02
2019-02-17T05:49:38.969Z,-2.94
2019-02-17T05:50:39.124Z,-3.05
2019-02-17T05:51:39.304Z,-2.99
2019-02-17T05:52:39.471Z,-2.97
2019-02-17T05:53:39.653Z,-3.05
2019-02-17T05:54:39.849Z,-2.92
2019-02-17T05:55:40.030Z,-3.05
2019-02-17T05:56:40.201Z,-3.03
2019-02-17T05:57:40.364Z,-3.03
2019-02-17T05:58:40.543Z,-3.10
2019-02-17T05:59:40.756Z,-3.06
2019-02-17T06:00:40.926Z,-3.06
2019-02-17T06:01:41.079Z,-2.91
2019-02-17T06:02:41.284Z,-2.96
2019-02-17T06:03:41.453Z,-2.96
2019-02-17T06:04:41.626Z,-2.97
2019-02-17T06:05:41.827Z,-2.91
2019-02-17T06:06:41.982Z,-2.79
2019-02-17T06:07:42.160Z,-2.79
2019-02-17T06:08:42.349Z,-2.67
2019-02-17T06:09:42.533Z,-2.74
2019-02-17T06:10:42.725Z,-2.67
2019-02-17T06:11:42.895Z,-2.74
2019-02-17T06:12:43.057Z,-2.71
2019-02-17T06:13:43.215Z,-2.61
2019-02-17T06:14:43.451Z,-2.71
2019-02-17T06:15:43.614Z,-2.67
2019-02-17T06:16:43.773Z,-2.68
2019-02-17T06:17:43.955Z,-2.66
2019-02-17T06:18:44.115Z,-2.71
2019-02-17T06:19:44.278Z,-2.77
2019-02-17T06:20:44.550Z,-2.73
2019-02-17T06:21:44.597Z,-2.70
2019-02-17T06:22:44.772Z,-2.70
2019-02-17T06:23:44.941Z,-2.68
2019-02-17T06:24:45.105Z,-2.79
2019-02-17T06:25:45.285Z,-2.81
2019-02-17T06:26:45.460Z,-2.68
2019-02-17T06:27:45.635Z,-2.70
2019-02-17T06:28:45.941Z,-2.74
2019-02-17T06:29:45.994Z,-2.74
2019-02-17T06:30:46.171Z,-2.74
2019-02-17T06:31:46.346Z,-2.81
2019-02-17T06:32:46.532Z,-2.78
2019-02-17T06:33:46.741Z,-2.68
2019-02-17T06:34:46.958Z,-2.67
2019-02-17T06:35:47.152Z,-2.68
2019-02-17T06:36:48.290Z,-2.61
2019-02-17T06:37:47.592Z,-2.55
2019-02-17T06:38:47.732Z,-2.61
2019-02-17T06:39:47.896Z,-2.61
2019-02-17T06:40:48.008Z,-2.71
2019-02-17T06:41:48.119Z,-2.64
2019-02-17T06:42:48.324Z,-2.84
2019-02-17T06:43:48.566Z,-2.88
2019-02-17T06:44:48.751Z,-2.82
2019-02-17T06:45:49.023Z,-2.85
2019-02-17T06:46:49.222Z,-2.86
2019-02-17T06:47:49.280Z,-2.92
2019-02-17T06:48:49.489Z,-2.88
2019-02-17T06:49:49.699Z,-2.91
2019-02-17T06:50:49.911Z,-2.92
2019-02-17T06:51:50.083Z,-2.96
2019-02-17T06:52:50.261Z,-2.99
2019-02-17T06:53:50.439Z,-3.05
2019-02-17T06:54:50.626Z,-3.05
2019-02-17T06:55:50.842Z,-3.00
2019-02-17T06:56:51.022Z,-3.12
2019-02-17T06:57:51.229Z,-3.09
2019-02-17T06:58:51.401Z,-3.05
2019-02-17T06:59:52.650Z,-3.00
2019-02-17T07:00:51.777Z,-2.92
2019-02-17T07:01:55.849Z,-2.86
2019-02-17T07:02:55.568Z,-2.78
2019-02-17T07:03:53.315Z,-2.74
2019-02-17T07:05:01.920Z,-2.78
2019-02-17T07:05:53.707Z,-2.81
2019-02-17T07:06:52.911Z,-2.68
2019-02-17T07:07:53.144Z,-2.63
2019-02-17T07:08:53.320Z,-2.63
2019-02-17T07:09:53.599Z,-2.68
2019-02-17T07:10:53.700Z,-2.55
2019-02-17T07:11:56.894Z,-2.66
2019-02-17T07:12:54.059Z,-2.61
2019-02-17T07:13:54.278Z,-2.56
2019-02-17T07:14:54.532Z,-2.60
2019-02-17T07:15:54.713Z,-2.63
2019-02-17T07:16:54.853Z,-2.58
2019-02-17T07:17:54.978Z,-2.63
2019-02-17T07:18:55.178Z,-2.49
2019-02-17T07:19:55.940Z,-2.58
2019-02-17T07:21:30.368Z,-2.56
2019-02-17T07:21:55.789Z,-2.50
2019-02-17T07:22:56.013Z,-2.56
2019-02-17T07:23:56.218Z,-2.45
2019-02-17T07:24:56.408Z,-2.43
2019-02-17T07:25:56.607Z,-2.40
2019-02-17T07:26:56.928Z,-2.37
2019-02-17T07:27:57.020Z,-2.16
2019-02-17T07:28:57.326Z,-2.20
2019-02-17T07:29:57.464Z,-2.15
2019-02-17T07:30:57.555Z,-2.10
2019-02-17T07:31:57.805Z,-2.13
2019-02-17T07:32:57.945Z,-2.02
2019-02-17T07:33:58.258Z,-2.03
2019-02-17T07:34:59.790Z,-2.05
2019-02-17T07:35:58.613Z,-1.97
2019-02-17T07:36:58.607Z,-2.00
2019-02-17T07:37:58.732Z,-1.77
2019-02-17T07:38:58.869Z,-1.82
2019-02-17T07:39:59.120Z,-1.82
2019-02-17T07:40:59.234Z,-1.76
2019-02-17T07:41:59.511Z,-1.67
2019-02-17T07:42:59.788Z,-1.64
2019-02-17T07:43:59.810Z,-1.72
2019-02-17T07:45:00.077Z,-1.55
2019-02-17T07:46:00.112Z,-1.59
2019-02-17T07:47:00.270Z,-1.45
2019-02-17T07:48:00.439Z,-1.28
2019-02-17T07:49:00.597Z,-1.13
2019-02-17T07:50:00.786Z,-1.07
2019-02-17T07:51:00.876Z,-0.92
2019-02-17T07:52:01.468Z,-0.91
2019-02-17T07:53:01.265Z,-0.86
2019-02-17T07:54:01.902Z,-0.86
2019-02-17T07:55:01.639Z,-0.76
2019-02-17T07:56:01.921Z,-0.75
2019-02-17T07:57:01.989Z,-0.73
2019-02-17T07:58:02.184Z,-0.72
2019-02-17T07:59:03.057Z,-0.72
2019-02-17T08:00:02.639Z,-0.64
2019-02-17T08:01:03.237Z,-0.73
2019-02-17T08:02:02.897Z,-0.76
2019-02-17T08:03:03.122Z,-0.62
2019-02-17T08:04:03.315Z,-0.60
2019-02-17T08:05:03.548Z,-0.44
2019-02-17T08:06:03.755Z,-0.39
2019-02-17T08:07:03.999Z,-0.37
2019-02-17T08:08:04.203Z,-0.29
2019-02-17T08:09:04.408Z,-0.26
2019-02-17T08:10:04.654Z,-0.25
2019-02-17T08:11:05.577Z,-0.16
2019-02-17T08:12:05.040Z,0.00
2019-02-17T08:13:05.251Z,0.14
2019-02-17T08:14:05.434Z,0.18
2019-02-17T08:15:07.242Z,0.20
2019-02-17T08:16:05.876Z,0.35
2019-02-17T08:17:05.933Z,0.33
2019-02-17T08:18:06.152Z,0.35
2019-02-17T08:19:06.343Z,0.49
2019-02-17T08:20:06.543Z,0.61
2019-02-17T08:21:06.752Z,0.66
2019-02-17T08:22:06.957Z,0.78
2019-02-17T08:23:07.139Z,0.90
2019-02-17T08:24:07.316Z,0.90
2019-02-17T08:25:07.478Z,0.97
2019-02-17T08:26:07.670Z,1.05
2019-02-17T08:27:07.864Z,1.14
2019-02-17T08:28:08.049Z,1.18
2019-02-17T08:29:08.286Z,1.20
2019-02-17T08:30:08.482Z,1.26
2019-02-17T08:31:08.704Z,1.29
2019-02-17T08:32:08.884Z,1.34
2019-02-17T08:33:09.095Z,1.40
2019-02-17T08:34:09.274Z,1.44
2019-02-17T08:35:09.454Z,1.48
2019-02-17T08:36:09.635Z,1.48
2019-02-17T08:37:11.167Z,1.30
2019-02-17T08:38:09.953Z,1.41
2019-02-17T08:39:10.143Z,1.48
2019-02-17T08:40:10.347Z,1.65
2019-02-17T08:41:10.585Z,1.69
2019-02-17T08:42:10.803Z,1.70
2019-02-17T08:43:10.986Z,1.77
2019-02-17T08:44:11.238Z,1.84
2019-02-17T08:45:11.344Z,1.98
2019-02-17T08:46:11.551Z,2.06
2019-02-17T08:47:11.803Z,2.14
2019-02-17T08:48:11.899Z,2.28
2019-02-17T08:49:12.100Z,2.36
2019-02-17T08:50:12.304Z,2.60
2019-02-17T08:51:12.510Z,2.79
2019-02-17T08:52:12.704Z,2.95
2019-02-17T08:53:12.908Z,3.11
2019-02-17T08:54:13.094Z,3.32
2019-02-17T08:55:13.293Z,3.54
2019-02-17T08:56:13.492Z,3.75
2019-02-17T08:57:13.688Z,4.04
2019-02-17T08:58:13.839Z,4.29
2019-02-17T08:59:14.048Z,4.55
2019-02-17T09:15:49.473Z,5.85
2019-02-17T09:16:49.569Z,5.81
2019-02-17T09:17:49.722Z,5.89
2019-02-17T09:18:49.627Z,6.00
2019-02-17T09:19:49.762Z,5.93
2019-02-17T09:20:49.922Z,5.65
2019-02-17T09:21:50.047Z,5.65
2019-02-17T09:22:50.200Z,5.85
2019-02-17T09:23:50.340Z,6.01
2019-02-17T09:24:50.537Z,6.27
2019-02-17T09:25:50.723Z,6.37
2019-02-17T09:26:50.881Z,6.64
2019-02-17T09:27:51.008Z,6.54
2019-02-17T10:10:21.216Z,11.24
2019-02-17T10:11:21.303Z,11.58
2019-02-17T10:12:21.459Z,11.75
2019-02-17T10:13:21.579Z,12.02
2019-02-17T10:14:21.769Z,11.64
2019-02-17T10:15:21.926Z,11.29
2019-02-17T10:16:22.896Z,11.54
2019-02-17T10:17:22.364Z,11.51
2019-02-17T10:18:22.568Z,11.83
2019-02-17T10:19:22.762Z,12.34
2019-02-17T10:20:24.494Z,12.71
2019-02-17T10:21:23.109Z,12.17
2019-02-17T10:22:23.830Z,12.34
2019-02-17T10:23:24.249Z,12.10
2019-02-17T10:24:24.271Z,11.85
2019-02-17T10:25:24.146Z,11.80
2019-02-17T10:26:24.127Z,11.64
2019-02-17T10:27:24.527Z,11.62
2019-02-17T10:28:25.108Z,11.69
2019-02-17T10:29:24.838Z,11.99
2019-02-17T10:30:24.987Z,12.39
2019-02-17T10:31:25.173Z,12.47
2019-02-17T10:32:25.286Z,12.53
2019-02-17T10:33:25.968Z,12.37
2019-02-17T10:34:25.962Z,11.85
2019-02-17T10:35:26.085Z,12.04
2019-02-17T10:36:26.251Z,12.53
2019-02-17T10:37:26.259Z,13.07
2019-02-17T10:38:27.610Z,12.90
2019-02-17T10:39:26.709Z,12.59
2019-02-17T10:40:27.129Z,12.57
2019-02-17T10:41:26.956Z,13.15
2019-02-17T10:42:27.328Z,13.29
2019-02-17T10:43:27.292Z,13.63
2019-02-17T10:44:27.426Z,14.32
2019-02-17T10:45:28.207Z,14.64
2019-02-17T10:46:27.952Z,14.18
2019-02-17T10:47:28.233Z,14.46
2019-02-17T10:48:28.726Z,14.50
2019-02-17T10:49:28.542Z,14.91
2019-02-17T10:50:28.827Z,15.23
2019-02-17T10:51:28.968Z,15.36
2019-02-17T10:52:29.432Z,15.44
2019-02-17T10:53:29.835Z,15.07
2019-02-17T10:54:29.814Z,15.27
2019-02-17T10:55:29.817Z,15.25
2019-02-17T10:56:29.922Z,15.38
2019-02-17T10:57:30.163Z,15.49
2019-02-17T10:58:30.473Z,15.90
2019-02-17T10:59:31.843Z,15.78
2019-02-17T11:30:32.281Z,18.58
2019-02-17T11:31:32.674Z,18.90
2019-02-17T11:32:32.610Z,19.23
2019-02-17T11:33:32.827Z,19.51
2019-02-17T11:34:33.044Z,19.47
2019-02-17T11:35:33.231Z,19.46
2019-02-17T11:36:33.447Z,19.39
2019-02-17T11:37:33.668Z,18.95
2019-02-17T11:38:33.849Z,18.82
2019-02-17T11:39:34.041Z,18.54
2019-02-17T11:40:34.277Z,18.03
2019-02-17T11:41:34.494Z,18.11
2019-02-17T11:42:34.680Z,18.37
2019-02-17T11:43:34.914Z,18.37
2019-02-17T11:44:35.107Z,18.69
2019-02-17T11:45:35.319Z,18.75
2019-02-17T11:46:35.507Z,19.04
2019-02-17T11:47:35.699Z,19.28
2019-02-17T11:48:35.899Z,19.80
2019-02-17T11:49:36.129Z,20.14
2019-02-17T11:50:36.387Z,20.51
2019-02-17T11:51:36.515Z,20.43
2019-02-17T11:52:37.721Z,20.89
2019-02-17T11:53:37.888Z,21.22
2019-02-17T11:54:38.171Z,21.12
2019-02-17T11:55:38.236Z,20.73
2019-02-17T11:56:38.381Z,20.91
2019-02-17T11:57:38.567Z,20.98
2019-02-17T11:58:38.735Z,21.12
2019-02-17T11:59:38.855Z,21.25
2019-02-17T12:00:39.001Z,21.06
2019-02-17T12:01:39.193Z,20.59
2019-02-17T12:02:39.399Z,20.31
2019-02-17T12:03:39.569Z,19.96
2019-02-17T12:04:39.852Z,19.78
2019-02-17T12:05:40.184Z,19.63
2019-02-17T12:06:40.096Z,19.46
2019-02-17T12:07:40.277Z,19.73
2019-02-17T12:08:40.540Z,20.03
2019-02-17T12:09:40.699Z,19.78
2019-02-17T12:10:40.785Z,19.71
2019-02-17T12:11:40.966Z,19.81
2019-02-17T12:12:41.174Z,19.91
2019-02-17T12:13:41.313Z,19.59
2019-02-17T12:14:41.547Z,19.62
2019-02-17T12:15:41.697Z,19.63
2019-02-17T12:16:41.862Z,19.59
2019-02-17T12:17:42.017Z,19.26
2019-02-17T12:18:42.216Z,19.39
2019-02-17T12:19:42.372Z,19.16
2019-02-17T12:20:42.485Z,18.87
2019-02-17T12:21:42.645Z,17.96
2019-02-17T12:22:42.793Z,17.86
2019-02-17T12:23:42.925Z,17.58
2019-02-17T12:24:43.061Z,17.86
2019-02-17T12:25:43.214Z,17.59
2019-02-17T12:26:43.365Z,17.33
2019-02-17T12:27:43.542Z,17.46
2019-02-17T12:28:43.690Z,17.64
2019-02-17T12:29:45.116Z,17.40
2019-02-17T12:30:44.188Z,17.58
2019-02-17T12:31:44.393Z,17.63
2019-02-17T12:32:44.529Z,17.26
2019-02-17T12:33:44.702Z,17.51
2019-02-17T12:34:44.831Z,17.06
2019-02-17T12:35:45.005Z,16.82
2019-02-17T12:36:45.135Z,16.49
2019-02-17T12:37:47.293Z,16.34
2019-02-17T12:38:45.511Z,16.49
2019-02-17T12:39:45.759Z,16.53
2019-02-17T12:40:45.861Z,16.41
2019-02-17T12:41:46.076Z,16.60
2019-02-17T12:42:46.234Z,16.88
2019-02-17T12:43:46.358Z,17.15
2019-02-17T12:44:46.486Z,17.28
2019-02-17T12:45:46.686Z,17.21
2019-02-17T13:06:22.976Z,17.92
2019-02-17T13:07:24.304Z,18.07
2019-02-17T13:08:24.470Z,18.51
2019-02-17T13:09:24.871Z,18.81
2019-02-17T13:10:25.489Z,18.75
2019-02-17T13:11:25.066Z,19.02
2019-02-17T13:12:25.496Z,19.84
2019-02-17T13:13:25.923Z,19.66
2019-02-17T13:14:26.499Z,19.88
2019-02-17T13:15:26.459Z,21.16
2019-02-17T13:16:26.845Z,22.14
2019-02-17T13:17:27.178Z,22.58
2019-02-17T13:18:28.126Z,23.05
2019-02-17T13:19:26.728Z,23.43
2019-02-17T13:20:26.891Z,24.00
2019-02-17T13:21:27.938Z,24.69
2019-02-17T13:22:28.301Z,24.81
2019-02-17T13:23:27.441Z,25.30
2019-02-17T13:24:27.741Z,25.58
2019-02-17T13:25:30.212Z,25.32
2019-02-17T13:26:27.808Z,25.58
2019-02-17T13:27:27.994Z,25.46
2019-02-17T13:28:28.277Z,25.45
2019-02-17T13:29:28.276Z,25.45
2019-02-17T13:30:28.368Z,25.36
2019-02-17T13:31:29.360Z,25.47
2019-02-17T13:32:29.832Z,25.45
2019-02-17T13:33:38.750Z,25.80
2019-02-17T13:34:31.095Z,26.25
2019-02-17T13:35:29.601Z,26.17
2019-02-17T13:36:30.323Z,26.25
2019-02-17T13:37:30.319Z,25.82
2019-02-17T13:38:31.327Z,25.72
2019-02-17T13:39:30.792Z,25.60
2019-02-17T13:40:31.664Z,25.61
2019-02-17T13:41:30.950Z,25.40
2019-02-17T13:42:31.317Z,25.24
2019-02-17T13:43:32.159Z,24.84
2019-02-17T13:44:31.678Z,24.34
2019-02-17T13:45:32.115Z,23.94
2019-02-17T13:46:31.917Z,23.65
2019-02-17T13:47:32.404Z,23.60
2019-02-17T13:48:32.701Z,23.63
2019-02-17T13:49:32.650Z,23.47
2019-02-17T13:50:32.978Z,23.36
2019-02-17T13:51:33.285Z,23.63
2019-02-17T13:52:33.978Z,23.93
2019-02-17T13:53:34.476Z,24.22
2019-02-17T13:54:33.537Z,24.50
2019-02-17T13:55:34.605Z,24.55
2019-02-17T13:56:34.762Z,24.49
2019-02-17T13:57:33.817Z,24.08
2019-02-17T13:58:33.907Z,24.00
2019-02-17T13:59:34.279Z,23.43
2019-02-17T14:00:34.581Z,23.22
2019-02-17T14:01:34.677Z,23.28
2019-02-17T14:02:34.987Z,23.17
2019-02-17T14:03:35.151Z,22.51
